createdAt,value
2022-12-20T00:01:26.865Z,60.91
2022-12-20T00:03:28.513Z,60.76
2022-12-20T00:05:30.309Z,60.78
2022-12-20T00:07:35.066Z,60.74
2022-12-20T00:09:36.640Z,60.85
2022-12-20T00:11:40.919Z,60.75
2022-12-20T00:13:42.433Z,61.12
2022-12-20T00:15:44.155Z,61.07
2022-12-20T00:17:45.712Z,61.11
2022-12-20T00:19:47.224Z,61.21
2022-12-20T00:21:48.786Z,61.06
2022-12-20T00:23:51.584Z,61.03
2022-12-20T00:25:53.120Z,61.26
2022-12-20T00:27:56.094Z,61.35
2022-12-20T00:29:57.648Z,61.42
2022-12-20T00:31:59.289Z,61.26
2022-12-20T00:34:01.322Z,61.99
2022-12-20T00:36:03.753Z,62.02
2022-12-20T00:38:05.286Z,62.39
2022-12-20T00:40:24.780Z,62.56
2022-12-20T00:42:26.350Z,62.45
2022-12-20T00:44:29.307Z,62.37
2022-12-20T00:46:31.981Z,62.36
2022-12-20T00:48:34.885Z,62.52
2022-12-20T00:50:36.379Z,62.01
2022-12-20T00:52:37.921Z,61.89
2022-12-20T00:54:39.491Z,62.28
2022-12-20T00:56:41.009Z,62.25
2022-12-20T00:58:43.564Z,62.02
2022-12-20T01:00:53.901Z,62.02
2022-12-20T01:02:57.689Z,61.63
2022-12-20T01:04:59.353Z,61.82
2022-12-20T01:07:00.957Z,61.71
2022-12-20T01:09:03.136Z,62.23
2022-12-20T01:11:08.043Z,62.14
2022-12-20T01:13:09.588Z,62.49
2022-12-20T01:15:11.708Z,61.95
2022-12-20T01:17:14.566Z,61.91
2022-12-20T01:19:17.643Z,61.92
2022-12-20T01:21:20.879Z,62.07
2022-12-20T01:23:22.396Z,61.89
2022-12-20T01:25:23.920Z,61.39
2022-12-20T01:27:27.815Z,61.55
2022-12-20T01:29:29.391Z,61.83
2022-12-20T01:31:31.175Z,61.61
2022-12-20T01:33:35.982Z,61.42
2022-12-20T01:35:37.518Z,61.38
2022-12-20T01:37:39.108Z,61.44
2022-12-20T01:39:40.649Z,61.25
2022-12-20T01:41:43.164Z,61.27
2022-12-20T01:43:48.364Z,61.14
2022-12-20T01:45:49.940Z,61.01
2022-12-20T01:47:51.537Z,61.08
2022-12-20T01:49:57.392Z,60.86
2022-12-20T01:52:03.652Z,60.78
2022-12-20T01:54:10.269Z,60.85
2022-12-20T01:56:12.006Z,61.09
2022-12-20T01:58:16.281Z,60.86
2022-12-20T02:00:18.534Z,60.81
2022-12-20T02:02:20.275Z,60.51
2022-12-20T02:04:21.985Z,60.99
2022-12-20T02:06:36.410Z,60.80
2022-12-20T02:08:40.190Z,60.90
2022-12-20T02:11:00.310Z,60.84
2022-12-20T02:13:08.258Z,60.71
2022-12-20T02:15:21.616Z,60.92
2022-12-20T02:17:36.124Z,61.23
2022-12-20T02:20:16.242Z,61.68
2022-12-20T02:22:29.515Z,61.20
2022-12-20T02:25:09.861Z,61.93
2022-12-20T02:27:30.602Z,61.95
2022-12-20T02:29:40.959Z,61.95
2022-12-20T02:31:50.241Z,62.32
2022-12-20T02:33:54.991Z,62.66
2022-12-20T02:35:56.492Z,62.44
2022-12-20T02:38:00.690Z,62.22
2022-12-20T02:40:04.237Z,62.04
2022-12-20T02:42:10.001Z,62.14
2022-12-20T02:44:15.799Z,62.25
2022-12-20T02:46:19.640Z,62.23
2022-12-20T02:48:25.807Z,62.13
2022-12-20T02:50:32.617Z,62.09
2022-12-20T02:52:35.819Z,62.46
2022-12-20T02:54:38.187Z,62.20
2022-12-20T02:56:46.235Z,61.70
2022-12-20T02:58:55.016Z,61.48
2022-12-20T03:00:59.485Z,61.99
2022-12-20T03:03:01.904Z,62.03
2022-12-20T03:05:05.983Z,61.81
2022-12-20T03:07:09.160Z,61.89
2022-12-20T03:09:10.655Z,62.40
2022-12-20T03:11:12.196Z,62.16
2022-12-20T03:13:13.777Z,61.92
2022-12-20T03:15:15.596Z,62.20
2022-12-20T03:17:17.231Z,62.21
2022-12-20T03:19:19.083Z,62.22
2022-12-20T03:21:21.966Z,62.03
2022-12-20T03:23:23.610Z,62.14
2022-12-20T03:25:25.277Z,61.92
2022-12-20T03:27:27.033Z,62.10
2022-12-20T03:29:28.841Z,62.19
2022-12-20T03:31:33.330Z,61.79
2022-12-20T03:33:34.938Z,61.64
2022-12-20T03:35:36.532Z,61.84
2022-12-20T03:37:39.476Z,61.71
2022-12-20T03:39:40.993Z,61.73
2022-12-20T03:41:42.538Z,61.95
2022-12-20T03:43:44.878Z,62.42
2022-12-20T03:45:46.450Z,62.65
2022-12-20T03:47:50.968Z,62.75
2022-12-20T03:49:52.479Z,62.98
2022-12-20T03:51:54.018Z,63.39
2022-12-20T03:53:57.006Z,63.47
2022-12-20T03:55:58.712Z,63.22
2022-12-20T03:58:00.266Z,63.55
2022-12-20T04:00:01.862Z,63.35
2022-12-20T04:02:03.968Z,63.69
2022-12-20T04:04:06.045Z,63.50
2022-12-20T04:06:07.805Z,63.46
2022-12-20T04:08:09.402Z,63.33
2022-12-20T04:10:12.781Z,63.18
2022-12-20T04:12:14.352Z,62.99
2022-12-20T04:14:15.885Z,63.24
2022-12-20T04:16:19.532Z,62.73
2022-12-20T04:18:21.183Z,62.48
2022-12-20T04:20:22.696Z,62.64
2022-12-20T04:22:24.258Z,62.46
2022-12-20T04:24:25.852Z,62.32
2022-12-20T04:26:34.969Z,62.35
2022-12-20T04:28:36.635Z,62.43
2022-12-20T04:30:38.206Z,62.36
2022-12-20T04:32:39.749Z,62.31
2022-12-20T04:34:41.262Z,62.14
2022-12-20T04:36:42.871Z,62.29
2022-12-20T04:38:44.378Z,62.13
2022-12-20T04:40:48.007Z,61.85
2022-12-20T04:42:52.604Z,62.23
2022-12-20T04:44:54.167Z,62.05
2022-12-20T04:46:55.780Z,62.15
2022-12-20T04:48:59.258Z,62.21
2022-12-20T04:51:01.445Z,62.13
2022-12-20T04:53:03.102Z,62.19
2022-12-20T04:55:05.267Z,61.71
2022-12-20T04:57:06.896Z,61.73
2022-12-20T04:59:09.811Z,61.72
2022-12-20T05:01:11.526Z,61.14
2022-12-20T05:03:13.202Z,61.61
2022-12-20T05:05:14.936Z,61.86
2022-12-20T05:07:16.518Z,62.02
2022-12-20T05:09:18.092Z,62.22
2022-12-20T05:11:21.536Z,62.43
2022-12-20T05:13:23.322Z,62.55
2022-12-20T05:15:26.364Z,62.37
2022-12-20T05:17:27.951Z,62.43
2022-12-20T05:19:29.529Z,62.24
2022-12-20T05:21:31.266Z,62.89
2022-12-20T05:23:32.856Z,62.51
2022-12-20T05:25:34.404Z,62.78
2022-12-20T05:27:38.068Z,62.77
2022-12-20T05:29:39.588Z,62.66
2022-12-20T05:31:42.545Z,62.88
2022-12-20T05:33:44.175Z,62.96
2022-12-20T05:35:45.751Z,62.72
2022-12-20T05:37:47.388Z,63.13
2022-12-20T05:39:48.971Z,62.87
2022-12-20T05:41:50.518Z,63.03
2022-12-20T05:43:52.124Z,62.68
2022-12-20T05:45:53.714Z,62.99
2022-12-20T05:47:56.639Z,62.72
2022-12-20T05:49:58.641Z,62.94
2022-12-20T05:52:01.748Z,62.80
2022-12-20T05:54:03.539Z,62.86
2022-12-20T05:56:06.077Z,63.11
2022-12-20T05:58:07.628Z,63.22
2022-12-20T06:00:10.700Z,63.15
2022-12-20T06:02:12.416Z,62.75
2022-12-20T06:04:15.500Z,62.61
2022-12-20T06:06:17.289Z,62.80
2022-12-20T06:08:18.911Z,62.55
2022-12-20T06:10:20.530Z,62.33
2022-12-20T06:12:22.308Z,62.37
2022-12-20T06:14:23.871Z,62.45
2022-12-20T06:16:25.681Z,62.33
2022-12-20T06:18:27.350Z,62.48
2022-12-20T06:20:30.276Z,62.68
2022-12-20T06:22:31.836Z,62.42
2022-12-20T06:24:33.401Z,62.58
2022-12-20T06:26:34.977Z,62.60
2022-12-20T06:28:36.732Z,62.67
2022-12-20T06:30:38.577Z,62.70
2022-12-20T06:32:40.143Z,62.55
2022-12-20T06:34:41.686Z,62.62
2022-12-20T06:36:44.937Z,62.46
2022-12-20T06:38:46.466Z,62.51
2022-12-20T06:40:48.034Z,62.28
2022-12-20T06:42:49.568Z,62.23
2022-12-20T06:44:51.357Z,62.13
2022-12-20T06:46:53.076Z,62.10
2022-12-20T06:48:56.260Z,61.89
2022-12-20T06:50:57.907Z,61.64
2022-12-20T06:53:00.841Z,61.66
2022-12-20T06:55:02.394Z,61.66
2022-12-20T06:57:04.081Z,61.58
2022-12-20T06:59:05.952Z,61.71
2022-12-20T07:01:07.546Z,61.45
2022-12-20T07:03:09.217Z,61.60
2022-12-20T07:05:10.889Z,61.31
2022-12-20T07:07:13.089Z,61.42
2022-12-20T07:09:16.950Z,61.60
2022-12-20T07:11:18.527Z,61.35
2022-12-20T07:13:20.366Z,61.25
2022-12-20T07:15:21.959Z,61.50
2022-12-20T07:17:23.542Z,61.58
2022-12-20T07:19:25.199Z,61.65
2022-12-20T07:21:27.589Z,61.91
2022-12-20T07:23:29.522Z,61.52
2022-12-20T07:25:32.494Z,61.69
2022-12-20T07:27:34.203Z,61.58
2022-12-20T07:29:35.849Z,61.68
2022-12-20T07:31:37.479Z,61.38
2022-12-20T07:33:39.137Z,61.78
2022-12-20T07:35:43.263Z,62.03
2022-12-20T07:37:45.554Z,61.89
2022-12-20T07:39:48.077Z,61.89
2022-12-20T07:41:53.477Z,61.99
2022-12-20T07:43:55.082Z,61.97
2022-12-20T07:45:56.980Z,61.98
2022-12-20T07:48:03.295Z,61.94
2022-12-20T07:50:09.505Z,61.69
2022-12-20T07:52:14.298Z,61.74
2022-12-20T07:54:25.536Z,61.48
2022-12-20T07:56:28.175Z,61.59
2022-12-20T07:58:32.418Z,61.24
2022-12-20T08:00:34.374Z,61.39
2022-12-20T08:02:40.755Z,61.44
2022-12-20T08:04:42.734Z,61.37
2022-12-20T08:06:44.674Z,61.54
2022-12-20T08:08:49.121Z,61.30
2022-12-20T08:10:51.214Z,61.24
2022-12-20T08:12:52.847Z,61.30
2022-12-20T08:14:57.146Z,61.30
2022-12-20T08:16:58.814Z,61.14
2022-12-20T08:19:00.564Z,61.10
2022-12-20T08:21:02.183Z,61.04
2022-12-20T08:23:04.185Z,61.04
2022-12-20T08:25:06.858Z,61.22
2022-12-20T08:27:08.761Z,61.04
2022-12-20T08:29:10.395Z,60.90
2022-12-20T08:31:13.969Z,60.86
2022-12-20T08:33:15.686Z,61.19
2022-12-20T08:35:17.290Z,61.16
2022-12-20T08:37:18.977Z,61.10
2022-12-20T08:39:20.532Z,61.01
2022-12-20T08:41:22.517Z,61.01
2022-12-20T08:43:24.212Z,60.97
2022-12-20T08:45:25.957Z,60.87
2022-12-20T08:47:30.479Z,60.66
2022-12-20T08:49:32.368Z,60.59
2022-12-20T08:51:33.935Z,60.55
2022-12-20T08:53:36.605Z,60.88
2022-12-20T08:55:38.197Z,60.81
2022-12-20T08:57:39.721Z,60.76
2022-12-20T08:59:52.294Z,60.62
2022-12-20T09:02:09.668Z,60.77
2022-12-20T09:04:12.815Z,60.65
2022-12-20T09:06:16.501Z,60.74
2022-12-20T09:08:18.133Z,60.54
2022-12-20T09:10:19.719Z,60.76
2022-12-20T09:12:21.339Z,60.90
2022-12-20T09:14:23.758Z,60.58
2022-12-20T09:16:30.688Z,60.60
2022-12-20T09:18:33.255Z,60.76
2022-12-20T09:20:36.233Z,60.75
2022-12-20T09:22:37.883Z,60.68
2022-12-20T09:24:39.687Z,60.54
2022-12-20T09:26:41.362Z,60.27
2022-12-20T09:28:44.002Z,60.36
2022-12-20T09:30:45.775Z,59.89
2022-12-20T09:32:47.370Z,60.14
2022-12-20T09:34:48.981Z,60.08
2022-12-20T09:36:51.906Z,60.18
2022-12-20T09:38:54.073Z,59.82
2022-12-20T09:40:58.614Z,60.12
2022-12-20T09:43:00.446Z,60.17
2022-12-20T09:45:08.593Z,59.88
2022-12-20T09:47:17.011Z,59.83
2022-12-20T09:49:19.247Z,59.87
2022-12-20T09:52:00.887Z,59.64
2022-12-20T09:54:12.095Z,59.59
2022-12-20T09:56:19.143Z,59.53
2022-12-20T09:58:41.385Z,59.75
2022-12-20T10:00:50.142Z,59.63
2022-12-20T10:03:08.291Z,59.79
2022-12-20T10:05:15.459Z,59.67
2022-12-20T10:07:33.116Z,59.92
2022-12-20T10:09:48.436Z,59.67
2022-12-20T10:12:03.710Z,59.67
2022-12-20T10:14:20.097Z,59.67
2022-12-20T10:16:35.012Z,59.53
2022-12-20T10:18:51.170Z,59.51
2022-12-20T10:20:59.763Z,59.46
2022-12-20T10:23:10.043Z,59.53
2022-12-20T10:25:18.223Z,59.59
2022-12-20T10:27:21.480Z,59.66
2022-12-20T10:29:23.159Z,59.91
2022-12-20T10:31:24.999Z,59.75
2022-12-20T10:33:31.980Z,59.51
2022-12-20T10:35:38.640Z,59.54
2022-12-20T10:38:07.124Z,59.65
2022-12-20T10:40:46.339Z,59.79
2022-12-20T10:42:50.558Z,59.54
2022-12-20T10:44:52.996Z,59.17
2022-12-20T10:46:56.244Z,59.23
2022-12-20T10:49:22.292Z,59.36
2022-12-20T10:51:23.924Z,59.87
2022-12-20T10:53:26.139Z,59.27
2022-12-20T10:55:37.176Z,59.43
2022-12-20T10:57:42.298Z,59.34
2022-12-20T10:59:48.795Z,59.22
2022-12-20T11:01:51.252Z,59.49
2022-12-20T11:03:56.585Z,59.38
2022-12-20T11:05:59.952Z,59.18
2022-12-20T11:08:36.005Z,59.18
2022-12-20T11:10:37.547Z,59.48
2022-12-20T11:12:53.022Z,59.25
2022-12-20T11:15:10.226Z,59.18
2022-12-20T11:17:24.915Z,59.30
2022-12-20T11:19:54.577Z,59.32
2022-12-20T11:22:05.913Z,59.32
2022-12-20T11:24:12.554Z,59.34
2022-12-20T11:26:31.832Z,59.39
2022-12-20T11:28:46.735Z,59.58
2022-12-20T11:30:57.495Z,59.21
2022-12-20T11:33:14.629Z,59.34
2022-12-20T11:35:22.291Z,59.24
2022-12-20T11:37:25.750Z,59.19
2022-12-20T11:39:34.244Z,59.33
2022-12-20T11:41:45.068Z,59.31
2022-12-20T11:46:40.722Z,59.26
2022-12-20T11:49:00.171Z,59.79
2022-12-20T11:51:16.068Z,59.51
2022-12-20T11:53:26.242Z,59.22
2022-12-20T11:55:31.871Z,59.02
2022-12-20T11:58:09.437Z,59.21
2022-12-20T12:00:14.275Z,59.08
2022-12-20T12:02:23.056Z,59.11
2022-12-20T12:04:27.226Z,58.99
2022-12-20T12:06:31.590Z,59.06
2022-12-20T12:08:42.722Z,59.11
2022-12-20T12:10:52.958Z,59.02
2022-12-20T12:13:03.410Z,58.71
2022-12-20T12:15:18.696Z,58.80
2022-12-20T12:17:29.196Z,58.70
2022-12-20T12:19:32.795Z,58.80
2022-12-20T12:21:39.788Z,58.82
2022-12-20T12:23:51.028Z,58.96
2022-12-20T12:25:52.867Z,58.77
2022-12-20T12:27:55.976Z,58.94
2022-12-20T12:29:58.666Z,59.10
2022-12-20T12:32:05.598Z,58.93
2022-12-20T12:34:19.165Z,58.63
2022-12-20T12:36:41.732Z,58.63
2022-12-20T12:39:14.076Z,58.57
2022-12-20T12:41:48.588Z,58.65
2022-12-20T12:43:54.213Z,58.80
2022-12-20T12:45:58.499Z,58.78
2022-12-20T12:48:05.374Z,58.82
2022-12-20T12:50:18.770Z,58.55
2022-12-20T12:52:42.417Z,58.61
2022-12-20T12:54:44.139Z,58.51
2022-12-20T12:56:47.480Z,58.29
2022-12-20T12:59:22.897Z,58.22
2022-12-20T13:01:49.867Z,58.34
2022-12-20T13:04:26.233Z,58.56
2022-12-20T13:07:04.403Z,58.87
2022-12-20T13:09:18.419Z,58.70
2022-12-20T13:11:29.852Z,58.61
2022-12-20T13:13:31.675Z,58.71
2022-12-20T13:16:04.252Z,58.69
2022-12-20T13:18:22.686Z,58.81
2022-12-20T13:20:27.066Z,58.76
2022-12-20T13:22:28.710Z,58.79
2022-12-20T13:24:38.662Z,58.66
2022-12-20T13:26:51.718Z,58.70
2022-12-20T13:28:53.358Z,58.78
2022-12-20T13:31:33.858Z,58.79
2022-12-20T13:33:42.623Z,59.16
2022-12-20T13:36:05.274Z,59.18
2022-12-20T13:38:55.325Z,59.39
2022-12-20T13:40:58.813Z,59.35
2022-12-20T13:43:06.881Z,58.91
2022-12-20T13:45:13.755Z,58.48
2022-12-20T13:47:43.921Z,58.53
2022-12-20T13:49:46.978Z,58.41
2022-12-20T13:51:48.713Z,58.43
2022-12-20T13:53:53.230Z,58.57
2022-12-20T13:55:55.455Z,58.65
2022-12-20T13:57:57.853Z,58.56
2022-12-20T14:00:07.296Z,58.53
2022-12-20T14:02:17.342Z,58.61
2022-12-20T14:04:20.111Z,58.50
2022-12-20T14:06:27.202Z,58.77
2022-12-20T14:08:32.041Z,58.71
2022-12-20T14:10:35.168Z,58.78
2022-12-20T14:12:37.229Z,58.55
2022-12-20T14:14:42.605Z,58.39
2022-12-20T14:16:44.421Z,58.42
2022-12-20T14:18:48.828Z,58.56
2022-12-20T14:20:53.863Z,58.36
2022-12-20T14:23:05.572Z,58.95
2022-12-20T14:25:09.571Z,58.47
2022-12-20T14:27:14.154Z,58.86
2022-12-20T14:29:18.387Z,58.81
2022-12-20T14:31:25.209Z,58.70
2022-12-20T14:33:31.028Z,58.54
2022-12-20T14:35:33.283Z,58.91
2022-12-20T14:37:37.838Z,58.82
2022-12-20T14:39:55.295Z,58.85
2022-12-20T14:41:58.810Z,58.82
2022-12-20T14:44:13.153Z,58.66
2022-12-20T14:46:20.452Z,58.49
2022-12-20T14:48:22.122Z,58.54
2022-12-20T14:50:28.989Z,58.59
2022-12-20T14:52:35.424Z,58.39
2022-12-20T14:57:11.665Z,58.12
2022-12-20T14:59:15.298Z,58.13
2022-12-20T15:01:19.802Z,58.54
2022-12-20T15:03:23.127Z,58.18
2022-12-20T15:05:45.420Z,57.99
2022-12-20T15:07:47.046Z,58.68
2022-12-20T15:09:50.022Z,58.48
2022-12-20T15:11:52.700Z,58.55
2022-12-20T15:13:54.994Z,58.59
2022-12-20T15:15:59.742Z,59.00
2022-12-20T15:18:01.491Z,58.98
2022-12-20T15:20:03.491Z,58.28
2022-12-20T15:22:05.235Z,58.54
2022-12-20T15:24:12.460Z,59.07
2022-12-20T15:26:17.167Z,58.10
2022-12-20T15:28:20.811Z,57.98
2022-12-20T15:30:22.869Z,58.06
2022-12-20T15:32:27.234Z,58.27
2022-12-20T15:34:33.888Z,58.27
2022-12-20T15:36:35.461Z,58.00
2022-12-20T15:41:04.307Z,58.31
2022-12-20T15:43:12.192Z,58.50
2022-12-20T15:45:14.575Z,57.95
2022-12-20T15:47:17.065Z,57.82
2022-12-20T15:49:26.187Z,57.71
2022-12-20T15:51:31.196Z,58.02
2022-12-20T15:53:34.118Z,57.97
2022-12-20T15:55:39.615Z,58.14
2022-12-20T15:57:41.893Z,58.10
2022-12-20T16:00:02.302Z,58.15
2022-12-20T16:02:18.271Z,58.10
2022-12-20T16:04:21.539Z,58.15
2022-12-20T16:06:23.131Z,58.06
2022-12-20T16:08:24.719Z,58.08
2022-12-20T16:10:26.324Z,58.37
2022-12-20T16:12:32.856Z,58.22
2022-12-20T16:14:34.449Z,57.92
2022-12-20T16:16:37.413Z,57.75
2022-12-20T16:18:39.015Z,57.87
2022-12-20T16:20:40.656Z,57.86
2022-12-20T16:22:42.379Z,58.05
2022-12-20T16:24:44.217Z,57.75
2022-12-20T16:26:45.944Z,57.65
2022-12-20T16:28:52.126Z,57.69
2022-12-20T16:30:53.945Z,57.74
2022-12-20T16:32:56.931Z,57.60
2022-12-20T16:34:58.499Z,57.45
2022-12-20T16:37:00.021Z,57.31
2022-12-20T16:39:01.701Z,57.48
2022-12-20T16:41:12.439Z,57.50
2022-12-20T16:43:14.896Z,57.51
2022-12-20T16:45:18.105Z,57.27
2022-12-20T16:47:19.787Z,57.30
2022-12-20T16:49:22.799Z,56.95
2022-12-20T16:51:26.154Z,57.50
2022-12-20T16:53:28.309Z,57.32
2022-12-20T16:55:39.475Z,57.39
2022-12-20T16:57:41.619Z,57.50
2022-12-20T16:59:43.411Z,57.17
2022-12-20T17:01:46.332Z,57.43
2022-12-20T17:03:48.312Z,57.43
2022-12-20T17:05:51.427Z,57.41
2022-12-20T17:07:53.344Z,57.38
2022-12-20T17:09:54.986Z,57.51
2022-12-20T17:11:56.605Z,57.67
2022-12-20T17:13:59.194Z,57.53
2022-12-20T17:16:00.886Z,57.73
2022-12-20T17:18:02.637Z,57.71
2022-12-20T17:20:05.003Z,57.28
2022-12-20T17:22:23.047Z,57.20
2022-12-20T17:24:24.716Z,57.49
2022-12-20T17:26:28.128Z,57.44
2022-12-20T17:28:29.793Z,57.38
2022-12-20T17:30:31.502Z,57.56
2022-12-20T17:32:33.319Z,57.63
2022-12-20T17:34:34.944Z,57.61
2022-12-20T17:36:38.244Z,57.27
2022-12-20T17:38:41.343Z,57.68
2022-12-20T17:40:42.899Z,57.27
2022-12-20T17:42:44.652Z,57.18
2022-12-20T17:44:46.679Z,57.08
2022-12-20T17:46:48.446Z,57.33
2022-12-20T17:48:50.217Z,56.99
2022-12-20T17:50:52.063Z,57.09
2022-12-20T17:52:53.775Z,56.90
2022-12-20T17:54:56.781Z,56.82
2022-12-20T17:56:58.654Z,57.01
2022-12-20T17:59:01.804Z,56.98
2022-12-20T18:01:03.496Z,56.73
2022-12-20T18:03:05.182Z,57.05
2022-12-20T18:05:07.763Z,57.10
2022-12-20T18:07:09.358Z,56.79
2022-12-20T18:09:14.300Z,56.98
2022-12-20T18:11:18.393Z,57.03
2022-12-20T18:13:20.216Z,56.89
2022-12-20T18:15:21.805Z,56.86
2022-12-20T18:17:23.381Z,56.91
2022-12-20T18:19:24.920Z,56.80
2022-12-20T18:21:26.893Z,56.71
2022-12-20T18:23:28.480Z,56.75
2022-12-20T18:25:30.099Z,56.60
2022-12-20T18:27:36.599Z,56.65
2022-12-20T18:29:38.262Z,56.96
2022-12-20T18:31:40.507Z,56.71
2022-12-20T18:33:42.255Z,57.02
2022-12-20T18:35:43.898Z,56.71
2022-12-20T18:37:45.871Z,57.13
2022-12-20T18:39:47.540Z,56.75
2022-12-20T18:41:49.165Z,56.66
2022-12-20T18:43:55.849Z,56.97
2022-12-20T18:46:03.576Z,56.77
2022-12-20T18:48:05.285Z,56.77
2022-12-20T18:50:08.043Z,56.96
2022-12-20T18:52:09.653Z,56.84
2022-12-20T18:54:13.269Z,57.00
2022-12-20T18:56:17.162Z,56.91
2022-12-20T18:58:18.785Z,56.82
2022-12-20T19:00:22.396Z,57.00
2022-12-20T19:02:24.183Z,57.13
2022-12-20T19:04:25.987Z,57.05
2022-12-20T19:06:27.541Z,57.13
2022-12-20T19:08:29.672Z,57.11
2022-12-20T19:10:32.097Z,56.98
2022-12-20T19:12:34.693Z,56.59
2022-12-20T19:14:36.303Z,56.74
2022-12-20T19:16:39.965Z,56.93
2022-12-20T19:18:43.196Z,56.90
2022-12-20T19:20:45.917Z,56.98
2022-12-20T19:22:47.561Z,56.84
2022-12-20T19:24:49.101Z,56.77
2022-12-20T19:26:50.849Z,56.77
2022-12-20T19:28:52.815Z,56.83
2022-12-20T19:30:54.417Z,56.91
2022-12-20T19:32:57.486Z,56.64
2022-12-20T19:34:59.019Z,56.57
2022-12-20T19:37:00.573Z,56.75
2022-12-20T19:39:05.268Z,56.66
2022-12-20T19:41:07.027Z,56.51
2022-12-20T19:43:08.688Z,56.50
2022-12-20T19:45:11.249Z,56.40
2022-12-20T19:47:12.892Z,56.43
2022-12-20T19:49:15.891Z,56.62
2022-12-20T19:51:18.591Z,56.69
2022-12-20T19:53:20.203Z,57.32
2022-12-20T19:55:21.863Z,57.55
2022-12-20T19:57:24.027Z,57.77
2022-12-20T19:59:27.852Z,58.03
2022-12-20T20:01:29.589Z,58.14
2022-12-20T20:03:31.636Z,58.46
2022-12-20T20:05:35.860Z,59.06
2022-12-20T20:07:37.504Z,58.94
2022-12-20T20:09:39.141Z,58.86
2022-12-20T20:11:40.985Z,59.13
2022-12-20T20:13:42.937Z,59.44
2022-12-20T20:15:49.816Z,59.67
2022-12-20T20:17:51.512Z,60.46
2022-12-20T20:19:53.043Z,60.72
2022-12-20T20:21:56.235Z,60.96
2022-12-20T20:24:04.617Z,61.06
2022-12-20T20:26:08.081Z,61.21
2022-12-20T20:28:09.697Z,61.31
2022-12-20T20:30:12.648Z,61.50
2022-12-20T20:32:14.225Z,61.61
2022-12-20T20:34:15.905Z,61.29
2022-12-20T20:36:20.109Z,61.19
2022-12-20T20:38:23.864Z,61.55
2022-12-20T20:40:25.641Z,61.59
2022-12-20T20:42:27.458Z,61.79
2022-12-20T20:44:29.064Z,61.92
2022-12-20T20:46:30.796Z,62.11
2022-12-20T20:48:32.601Z,61.84
2022-12-20T20:50:34.237Z,61.83
2022-12-20T20:52:35.965Z,61.93
2022-12-20T20:54:38.910Z,62.07
2022-12-20T20:56:40.531Z,61.98
2022-12-20T20:58:42.678Z,61.96
2022-12-20T21:00:44.299Z,61.94
2022-12-20T21:02:46.120Z,62.18
2022-12-20T21:05:07.500Z,62.46
2022-12-20T21:07:09.616Z,62.19
2022-12-20T21:09:11.283Z,62.39
2022-12-20T21:11:14.548Z,62.57
2022-12-20T21:13:16.836Z,62.94
2022-12-20T21:15:23.342Z,62.71
2022-12-20T21:17:25.439Z,63.15
2022-12-20T21:19:27.146Z,63.55
2022-12-20T21:21:28.851Z,63.92
2022-12-20T21:23:30.450Z,63.60
2022-12-20T21:25:32.485Z,63.74
2022-12-20T21:27:35.451Z,64.70
2022-12-20T21:29:37.205Z,65.14
2022-12-20T21:31:38.873Z,66.49
2022-12-20T21:33:41.401Z,65.14
2022-12-20T21:35:46.021Z,65.31
2022-12-20T21:37:49.957Z,65.23
2022-12-20T21:39:51.653Z,65.48
2022-12-20T21:41:59.838Z,66.06
2022-12-20T21:44:04.819Z,66.17
2022-12-20T21:46:06.910Z,65.90
2022-12-20T21:48:08.945Z,66.81
2022-12-20T21:50:10.759Z,66.77
2022-12-20T21:52:12.444Z,66.67
2022-12-20T21:54:14.125Z,66.59
2022-12-20T21:56:16.591Z,66.67
2022-12-20T21:58:23.590Z,66.51
2022-12-20T22:00:26.616Z,66.61
2022-12-20T22:02:28.411Z,66.99
2022-12-20T22:04:30.211Z,67.15
2022-12-20T22:06:32.434Z,67.41
2022-12-20T22:08:34.695Z,67.29
2022-12-20T22:10:36.289Z,67.46
2022-12-20T22:12:37.977Z,67.42
2022-12-20T22:14:39.532Z,67.75
2022-12-20T22:16:42.860Z,67.70
2022-12-20T22:18:48.303Z,68.10
2022-12-20T22:20:50.646Z,68.31
2022-12-20T22:22:52.273Z,68.33
2022-12-20T22:24:53.888Z,68.72
2022-12-20T22:27:11.008Z,68.79
2022-12-20T22:29:12.921Z,68.69
2022-12-20T22:31:15.009Z,68.66
2022-12-20T22:33:17.946Z,69.03
2022-12-20T22:35:22.994Z,69.13
2022-12-20T22:37:25.037Z,69.34
2022-12-20T22:39:26.608Z,69.39
2022-12-20T22:41:29.535Z,69.80
2022-12-20T22:43:31.787Z,69.82
2022-12-20T22:45:33.406Z,69.75
2022-12-20T22:47:34.980Z,70.18
2022-12-20T22:49:38.090Z,69.88
2022-12-20T22:51:39.676Z,69.90
2022-12-20T22:53:47.508Z,69.92
2022-12-20T22:55:50.780Z,70.23
2022-12-20T22:57:52.450Z,70.21
2022-12-20T22:59:54.086Z,70.28
2022-12-20T23:01:55.910Z,70.23
2022-12-20T23:04:00.027Z,70.58
2022-12-20T23:06:04.931Z,70.70
2022-12-20T23:08:06.513Z,70.83
2022-12-20T23:10:09.271Z,70.81
2022-12-20T23:12:11.045Z,70.32
2022-12-20T23:14:15.217Z,70.60
2022-12-20T23:16:17.111Z,71.02
2022-12-20T23:18:18.696Z,70.89
2022-12-20T23:20:20.317Z,71.42
2022-12-20T23:22:24.158Z,71.20
2022-12-20T23:24:25.722Z,71.29
2022-12-20T23:26:27.289Z,71.59
2022-12-20T23:28:28.809Z,71.50
2022-12-20T23:30:30.380Z,71.46
2022-12-20T23:32:32.113Z,72.06
2022-12-20T23:34:33.692Z,72.29
2022-12-20T23:36:35.308Z,71.95
2022-12-20T23:38:38.578Z,71.94
2022-12-20T23:40:40.331Z,71.95
2022-12-20T23:42:41.930Z,71.85
2022-12-20T23:44:43.546Z,72.00
2022-12-20T23:46:45.106Z,72.03
2022-12-20T23:48:46.728Z,72.53
2022-12-20T23:50:55.149Z,72.70
2022-12-20T23:52:56.809Z,72.94
2022-12-20T23:54:59.804Z,72.92
2022-12-20T23:57:01.459Z,72.84
2022-12-20T23:59:03.067Z,73.51
